createdAt,value
2019-02-27T00:01:49.928Z,101148.02
2019-02-27T00:04:21.683Z,101145.87
2019-02-27T00:06:52.817Z,101150.19
2019-02-27T00:09:24.062Z,101149.73
2019-02-27T00:11:55.318Z,101154.45
2019-02-27T00:14:28.813Z,101162.63
2019-02-27T00:16:59.959Z,101157.03
2019-02-27T00:19:32.308Z,101158.70
2019-02-27T00:22:03.887Z,101165.17
2019-02-27T00:24:35.392Z,101157.81
2019-02-27T00:27:06.769Z,101161.70
2019-02-27T00:29:38.338Z,101162.98
2019-02-27T00:32:09.698Z,101169.89
2019-02-27T00:34:41.365Z,101166.88
2019-02-27T00:37:12.636Z,101168.16
2019-02-27T00:39:44.258Z,101172.00
2019-02-27T00:42:19.478Z,101173.69
2019-02-27T00:44:49.058Z,101175.41
2019-02-27T00:47:20.775Z,101175.81
2019-02-27T00:49:52.103Z,101174.55
2019-02-27T00:52:23.350Z,101172.35
2019-02-27T00:54:55.063Z,101165.02
2019-02-27T00:57:26.519Z,101170.18
2019-02-27T00:59:58.071Z,101169.75
2019-02-27T01:02:29.288Z,101163.27
2019-02-27T01:05:00.811Z,101163.70
2019-02-27T01:07:32.619Z,101166.70
2019-02-27T01:10:04.490Z,101165.34
2019-02-27T01:12:35.940Z,101161.02
2019-02-27T01:15:10.625Z,101160.09
2019-02-27T01:17:40.773Z,101160.47
2019-02-27T01:20:12.719Z,101159.53
2019-02-27T01:22:44.638Z,101158.22
2019-02-27T01:25:16.862Z,101155.14
2019-02-27T01:27:48.118Z,101155.06
2019-02-27T01:30:19.400Z,101150.26
2019-02-27T01:32:50.698Z,101142.45
2019-02-27T01:35:22.221Z,101144.11
2019-02-27T01:37:55.130Z,101145.23
2019-02-27T01:40:26.618Z,101155.86
2019-02-27T01:42:57.949Z,101152.74
2019-02-27T01:45:29.444Z,101143.98
2019-02-27T01:48:00.773Z,101139.09
2019-02-27T01:50:33.968Z,101139.35
2019-02-27T01:53:07.342Z,101134.58
2019-02-27T01:55:38.955Z,101134.52
2019-02-27T01:58:10.371Z,101138.83
2019-02-27T02:00:42.010Z,101140.58
2019-02-27T02:03:14.287Z,101144.48
2019-02-27T02:05:46.300Z,101134.67
2019-02-27T02:08:18.078Z,101133.75
2019-02-27T02:10:49.478Z,101134.64
2019-02-27T02:13:35.752Z,101129.97
2019-02-27T02:16:34.952Z,101130.06
2019-02-27T02:19:39.423Z,101127.89
2019-02-27T02:22:54.419Z,101130.11
2019-02-27T02:26:06.031Z,101136.05
2019-02-27T02:29:14.009Z,101133.93
2019-02-27T02:32:10.220Z,101138.70
2019-02-27T02:35:33.701Z,101138.25
2019-02-27T02:38:30.428Z,101135.91
2019-02-27T02:41:51.352Z,101129.22
2019-02-27T02:45:02.672Z,101135.59
2019-02-27T02:48:03.126Z,101137.48
2019-02-27T02:51:02.745Z,101128.48
2019-02-27T02:54:04.310Z,101123.98
2019-02-27T02:57:17.234Z,101119.66
2019-02-27T03:00:06.974Z,101124.89
2019-02-27T03:03:17.537Z,101129.77
2019-02-27T03:06:36.134Z,101130.56
2019-02-27T03:09:48.261Z,101131.78
2019-02-27T03:13:05.804Z,101124.05
2019-02-27T03:15:52.009Z,101126.59
2019-02-27T03:19:24.948Z,101127.48
2019-02-27T03:22:40.478Z,101128.73
2019-02-27T03:25:26.629Z,101131.28
2019-02-27T03:28:33.370Z,101132.06
2019-02-27T03:31:26.256Z,101131.13
2019-02-27T03:34:27.332Z,101122.13
2019-02-27T03:37:39.180Z,101123.94
2019-02-27T03:40:45.040Z,101122.27
2019-02-27T03:43:51.272Z,101109.42
2019-02-27T03:46:49.481Z,101120.23
2019-02-27T03:49:39.688Z,101117.66
2019-02-27T03:52:37.371Z,101114.19
2019-02-27T03:55:46.801Z,101119.38
2019-02-27T03:59:06.039Z,101118.09
2019-02-27T04:02:05.779Z,101119.81
2019-02-27T04:04:49.290Z,101120.23
2019-02-27T04:07:46.487Z,101128.41
2019-02-27T04:10:17.760Z,101123.66
2019-02-27T04:12:51.621Z,101114.19
2019-02-27T04:15:21.662Z,101111.20
2019-02-27T04:17:52.225Z,101118.55
2019-02-27T04:20:23.462Z,101113.80
2019-02-27T04:22:54.942Z,101110.40
2019-02-27T04:25:31.078Z,101109.14
2019-02-27T04:27:58.974Z,101112.54
2019-02-27T04:30:30.120Z,101107.80
2019-02-27T04:33:01.489Z,101111.28
2019-02-27T04:35:34.272Z,101109.98
2019-02-27T04:38:06.750Z,101110.02
2019-02-27T04:40:37.838Z,101110.86
2019-02-27T04:43:08.928Z,101099.26
2019-02-27T04:45:40.098Z,101106.97
2019-02-27T04:48:11.310Z,101106.50
2019-02-27T04:50:44.137Z,101112.52
2019-02-27T04:53:15.741Z,101112.02
2019-02-27T04:55:47.974Z,101114.60
2019-02-27T04:58:19.768Z,101115.89
2019-02-27T05:00:50.800Z,101112.88
2019-02-27T05:03:21.999Z,101111.05
2019-02-27T05:05:53.410Z,101114.94
2019-02-27T05:08:27.164Z,101108.45
2019-02-27T05:10:58.400Z,101112.25
2019-02-27T05:13:29.619Z,101110.06
2019-02-27T05:16:00.800Z,101106.17
2019-02-27T05:18:31.969Z,101114.70
2019-02-27T05:21:03.117Z,101116.45
2019-02-27T05:23:34.308Z,101120.76
2019-02-27T05:26:05.791Z,101124.63
2019-02-27T05:28:38.138Z,101131.92
2019-02-27T05:31:10.608Z,101140.47
2019-02-27T05:33:41.728Z,101144.75
2019-02-27T05:36:12.958Z,101134.84
2019-02-27T05:38:44.187Z,101134.44
2019-02-27T05:41:15.318Z,101128.00
2019-02-27T05:43:48.558Z,101126.71
2019-02-27T05:46:19.393Z,101126.33
2019-02-27T05:48:50.966Z,101142.70
2019-02-27T05:51:23.540Z,101134.58
2019-02-27T05:53:56.106Z,101140.56
2019-02-27T05:56:27.608Z,101150.45
2019-02-27T05:58:58.820Z,101153.06
2019-02-27T06:01:30.209Z,101148.81
2019-02-27T06:04:01.528Z,101148.90
2019-02-27T06:06:32.952Z,101150.81
2019-02-27T06:09:04.300Z,101150.81
2019-02-27T06:11:36.131Z,101139.09
2019-02-27T06:14:07.332Z,101138.39
2019-02-27T06:16:40.920Z,101138.39
2019-02-27T06:19:12.219Z,101140.78
2019-02-27T06:21:43.408Z,101142.56
2019-02-27T06:24:15.440Z,101142.74
2019-02-27T06:26:46.720Z,101144.44
2019-02-27T06:29:17.993Z,101143.62
2019-02-27T06:31:49.227Z,101142.20
2019-02-27T06:34:22.305Z,101145.16
2019-02-27T06:36:53.349Z,101143.82
2019-02-27T06:39:24.600Z,101145.16
2019-02-27T06:41:55.850Z,101138.28
2019-02-27T06:44:27.350Z,101140.48
2019-02-27T06:46:58.622Z,101140.58
2019-02-27T06:49:29.610Z,101136.34
2019-02-27T06:52:00.881Z,101135.98
2019-02-27T06:54:32.130Z,101143.42
2019-02-27T06:57:07.496Z,101136.62
2019-02-27T06:59:36.342Z,101140.20
2019-02-27T07:02:07.650Z,101141.16
2019-02-27T07:04:39.648Z,101141.67
2019-02-27T07:07:11.610Z,101148.21
2019-02-27T07:09:43.249Z,101150.05
2019-02-27T07:12:16.110Z,101145.84
2019-02-27T07:14:47.191Z,101145.49
2019-02-27T07:17:19.020Z,101146.06
2019-02-27T07:19:50.430Z,101142.29
2019-02-27T07:22:21.840Z,101145.37
2019-02-27T07:24:53.040Z,101142.42
2019-02-27T07:27:24.668Z,101136.00
2019-02-27T07:29:56.220Z,101139.05
2019-02-27T07:32:31.370Z,101135.21
2019-02-27T07:35:00.311Z,101141.75
2019-02-27T07:37:31.600Z,101131.81
2019-02-27T07:40:08.015Z,101121.46
2019-02-27T07:42:36.357Z,101118.83
2019-02-27T07:45:10.727Z,101118.83
2019-02-27T07:47:41.633Z,101118.35
2019-02-27T07:50:14.530Z,101112.71
2019-02-27T07:52:45.907Z,101113.50
2019-02-27T07:55:21.866Z,101121.69
2019-02-27T07:58:02.660Z,101124.21
2019-02-27T08:00:34.060Z,101132.39
2019-02-27T08:03:09.071Z,101119.80
2019-02-27T08:05:38.351Z,101123.19
2019-02-27T08:08:09.850Z,101117.41
2019-02-27T08:10:41.500Z,101117.21
2019-02-27T08:13:12.728Z,101114.45
2019-02-27T08:15:44.080Z,101103.36
2019-02-27T08:18:15.450Z,101106.67
2019-02-27T08:20:48.106Z,101101.56
2019-02-27T08:23:19.431Z,101098.31
2019-02-27T08:25:51.090Z,101093.53
2019-02-27T08:28:22.330Z,101096.27
2019-02-27T08:30:53.712Z,101095.80
2019-02-27T08:33:24.890Z,101092.64
2019-02-27T08:35:57.270Z,101094.02
2019-02-27T08:38:28.391Z,101102.48
2019-02-27T08:40:59.811Z,101102.54
2019-02-27T08:43:31.722Z,101098.42
2019-02-27T08:46:03.169Z,101097.44
2019-02-27T08:48:34.421Z,101092.45
2019-02-27T08:51:08.622Z,101096.02
2019-02-27T08:53:38.610Z,101092.86
2019-02-27T08:56:12.185Z,101085.42
2019-02-27T08:58:42.730Z,101079.80
2019-02-27T09:01:14.190Z,101081.83
2019-02-27T09:03:45.440Z,101082.28
2019-02-27T09:06:18.627Z,101074.33
2019-02-27T09:08:49.710Z,101070.56
2019-02-27T09:11:20.871Z,101077.00
2019-02-27T09:13:52.130Z,101075.52
2019-02-27T09:16:26.036Z,101071.00
2019-02-27T09:18:56.140Z,101075.42
2019-02-27T09:21:28.538Z,101074.63
2019-02-27T09:24:00.430Z,101077.27
2019-02-27T09:26:36.057Z,101071.52
2019-02-27T09:29:05.430Z,101070.48
2019-02-27T09:31:37.766Z,101072.83
2019-02-27T09:34:09.922Z,101075.92
2019-02-27T09:36:43.264Z,101058.84
2019-02-27T09:39:14.140Z,101053.49
2019-02-27T09:41:46.926Z,101049.55
2019-02-27T09:44:18.471Z,101044.33
2019-02-27T09:46:52.365Z,101044.83
2019-02-27T09:49:23.322Z,101053.31
2019-02-27T09:51:56.300Z,101040.39
2019-02-27T09:54:27.522Z,101043.01
2019-02-27T09:57:02.096Z,101035.47
2019-02-27T09:59:32.025Z,101027.92
2019-02-27T10:02:06.331Z,101021.03
2019-02-27T10:04:37.330Z,101013.18
2019-02-27T10:07:08.497Z,101006.63
2019-02-27T10:09:40.389Z,101007.44
2019-02-27T10:12:11.760Z,100995.86
2019-02-27T10:14:43.190Z,100997.81
2019-02-27T10:17:14.460Z,100990.25
2019-02-27T10:19:45.610Z,100990.61
2019-02-27T10:22:17.852Z,100992.32
2019-02-27T10:24:49.705Z,100984.22
2019-02-27T10:27:20.953Z,100987.19
2019-02-27T10:29:52.310Z,100991.91
2019-02-27T10:32:23.450Z,100985.87
2019-02-27T10:34:54.700Z,100981.45
2019-02-27T10:37:26.035Z,100970.82
2019-02-27T10:39:57.350Z,100973.05
2019-02-27T10:42:28.520Z,100963.41
2019-02-27T10:44:59.920Z,100962.22
2019-02-27T10:47:33.659Z,100961.32
2019-02-27T10:50:04.190Z,100953.68
2019-02-27T10:52:35.450Z,100948.17
2019-02-27T10:55:07.280Z,100948.17
2019-02-27T10:57:38.645Z,100947.36
2019-02-27T11:00:19.111Z,100947.80
2019-02-27T11:02:52.570Z,100932.74
2019-02-27T11:05:23.850Z,100933.37
2019-02-27T11:07:55.276Z,100922.60
2019-02-27T11:10:26.752Z,100925.37
2019-02-27T11:12:58.183Z,100931.09
2019-02-27T11:15:29.590Z,100922.02
2019-02-27T11:18:04.415Z,100925.94
2019-02-27T11:20:33.822Z,100921.09
2019-02-27T11:23:07.076Z,100912.09
2019-02-27T11:25:38.620Z,100906.25
2019-02-27T11:28:09.991Z,100904.91
2019-02-27T11:30:41.203Z,100894.80
2019-02-27T11:33:24.721Z,100886.43
2019-02-27T11:35:45.967Z,100877.73
2019-02-27T11:38:17.310Z,100879.36
2019-02-27T11:40:48.490Z,100876.86
2019-02-27T11:43:19.890Z,100869.69
2019-02-27T11:45:50.978Z,100866.14
2019-02-27T11:48:22.865Z,100866.84
2019-02-27T11:50:54.643Z,100858.31
2019-02-27T11:53:25.970Z,100853.23
2019-02-27T11:55:57.332Z,100849.52
2019-02-27T11:58:28.790Z,100842.34
2019-02-27T12:01:00.071Z,100835.00
2019-02-27T12:03:31.399Z,100831.63
2019-02-27T12:06:05.276Z,100828.53
2019-02-27T12:08:35.620Z,100820.96
2019-02-27T12:11:06.991Z,100819.08
2019-02-27T12:13:38.240Z,100814.31
2019-02-27T12:16:10.708Z,100813.61
2019-02-27T12:18:42.172Z,100808.11
2019-02-27T12:21:13.451Z,100799.55
2019-02-27T12:23:44.903Z,100797.03
2019-02-27T12:26:16.090Z,100792.19
2019-02-27T12:28:47.604Z,100789.80
2019-02-27T12:31:18.911Z,100786.23
2019-02-27T12:33:50.190Z,100783.79
2019-02-27T12:36:21.400Z,100773.13
2019-02-27T12:38:52.759Z,100767.55
2019-02-27T12:41:23.950Z,100761.25
2019-02-27T12:43:55.185Z,100758.17
2019-02-27T12:46:26.380Z,100747.09
2019-02-27T12:48:57.600Z,100741.65
2019-02-27T12:51:28.800Z,100732.78
2019-02-27T12:54:00.070Z,100718.63
2019-02-27T12:56:31.351Z,100723.69
2019-02-27T12:59:02.618Z,100711.00
2019-02-27T13:01:33.890Z,100706.45
2019-02-27T13:04:05.110Z,100703.77
2019-02-27T13:06:37.396Z,100701.37
2019-02-27T13:09:07.568Z,100700.03
2019-02-27T13:11:41.653Z,100696.20
2019-02-27T13:14:12.170Z,100689.36
2019-02-27T13:16:46.398Z,100688.70
2019-02-27T13:19:17.182Z,100674.33
2019-02-27T13:21:48.430Z,100673.55
2019-02-27T13:24:19.650Z,100668.56
2019-02-27T13:26:50.850Z,100663.87
2019-02-27T13:29:22.761Z,100653.91
2019-02-27T13:31:54.000Z,100650.16
2019-02-27T13:34:25.290Z,100643.84
2019-02-27T13:36:56.640Z,100643.97
2019-02-27T13:39:29.090Z,100628.98
2019-02-27T13:42:00.330Z,100629.36
2019-02-27T13:44:34.440Z,100621.81
2019-02-27T13:47:04.440Z,100616.58
2019-02-27T13:49:35.769Z,100611.56
2019-02-27T13:52:07.032Z,100608.56
2019-02-27T13:54:38.291Z,100607.82
2019-02-27T13:57:09.540Z,100599.47
2019-02-27T13:59:42.232Z,100598.61
2019-02-27T14:02:13.701Z,100593.77
2019-02-27T14:04:44.969Z,100590.14
2019-02-27T14:07:18.610Z,100586.26
2019-02-27T14:09:49.330Z,100581.41
2019-02-27T14:12:20.630Z,100573.56
2019-02-27T14:14:53.319Z,100568.61
2019-02-27T14:17:24.860Z,100556.71
2019-02-27T14:19:56.080Z,100550.75
2019-02-27T14:22:27.225Z,100549.77
2019-02-27T14:24:59.490Z,100544.34
2019-02-27T14:27:30.772Z,100540.68
2019-02-27T14:30:03.762Z,100533.40
2019-02-27T14:32:36.353Z,100520.94
2019-02-27T14:35:07.770Z,100521.31
2019-02-27T14:37:38.940Z,100509.39
2019-02-27T14:40:12.520Z,100506.16
2019-02-27T14:42:43.870Z,100504.77
2019-02-27T14:45:17.090Z,100497.66
2019-02-27T14:47:48.370Z,100492.97
2019-02-27T14:50:21.620Z,100489.25
2019-02-27T14:52:52.922Z,100480.41
2019-02-27T14:55:24.358Z,100476.14
2019-02-27T14:57:55.660Z,100471.53
2019-02-27T15:00:28.881Z,100468.18
2019-02-27T15:03:00.499Z,100466.33
2019-02-27T15:05:32.350Z,100461.34
2019-02-27T15:08:03.770Z,100466.05
2019-02-27T15:10:40.237Z,100460.40
2019-02-27T15:13:08.360Z,100464.91
2019-02-27T15:15:43.320Z,100459.84
2019-02-27T15:18:14.033Z,100447.80
2019-02-27T15:20:45.750Z,100448.23
2019-02-27T15:23:18.650Z,100442.72
2019-02-27T15:25:50.180Z,100439.66
2019-02-27T15:28:21.570Z,100445.95
2019-02-27T15:30:53.020Z,100449.07
2019-02-27T15:33:24.362Z,100443.48
2019-02-27T15:35:56.384Z,100437.98
2019-02-27T15:38:26.851Z,100432.88
2019-02-27T15:41:02.391Z,100428.89
2019-02-27T15:43:31.720Z,100433.84
2019-02-27T15:46:02.890Z,100431.19
2019-02-27T15:48:34.399Z,100421.10
2019-02-27T15:51:05.910Z,100416.48
2019-02-27T15:53:37.179Z,100411.02
2019-02-27T15:56:08.894Z,100407.23
2019-02-27T15:58:42.549Z,100403.07
2019-02-27T16:01:14.852Z,100405.41
2019-02-27T16:03:46.719Z,100402.05
2019-02-27T16:06:18.010Z,100399.53
2019-02-27T16:08:49.390Z,100395.45
2019-02-27T16:11:20.611Z,100387.30
2019-02-27T16:13:51.891Z,100379.67
2019-02-27T16:16:23.522Z,100373.23
2019-02-27T16:18:54.840Z,100365.89
2019-02-27T16:21:26.061Z,100357.61
2019-02-27T16:23:59.371Z,100356.83
2019-02-27T16:26:30.440Z,100351.98
2019-02-27T16:29:01.890Z,100349.75
2019-02-27T16:31:33.870Z,100345.09
2019-02-27T16:34:05.260Z,100342.08
2019-02-27T16:36:37.252Z,100334.22
2019-02-27T16:39:08.599Z,100335.98
2019-02-27T16:41:41.476Z,100333.41
2019-02-27T16:44:12.581Z,100318.95
2019-02-27T16:46:46.261Z,100319.48
2019-02-27T16:49:17.530Z,100326.42
2019-02-27T16:51:48.801Z,100322.44
2019-02-27T16:54:20.021Z,100313.42
2019-02-27T16:56:51.406Z,100305.52
2019-02-27T16:59:22.671Z,100305.13
2019-02-27T17:01:53.871Z,100299.64
2019-02-27T17:04:25.000Z,100291.16
2019-02-27T17:06:56.440Z,100285.37
2019-02-27T17:09:28.380Z,100289.97
2019-02-27T17:12:00.110Z,100282.31
2019-02-27T17:14:31.470Z,100280.70
2019-02-27T17:17:03.021Z,100273.82
2019-02-27T17:19:36.527Z,100270.47
2019-02-27T17:22:07.219Z,100261.14
2019-02-27T17:24:38.497Z,100251.39
2019-02-27T17:27:12.521Z,100244.16
2019-02-27T17:29:42.723Z,100244.48
2019-02-27T17:32:14.112Z,100244.58
2019-02-27T17:34:47.685Z,100239.87
2019-02-27T17:37:18.771Z,100241.66
2019-02-27T17:39:50.551Z,100237.91
2019-02-27T17:42:21.871Z,100237.66
2019-02-27T17:44:53.121Z,100244.50
2019-02-27T17:47:28.600Z,100243.80
2019-02-27T17:49:58.259Z,100237.48
2019-02-27T17:52:29.511Z,100231.97
2019-02-27T17:55:03.568Z,100224.13
2019-02-27T17:57:34.700Z,100216.84
2019-02-27T18:00:07.188Z,100205.27
2019-02-27T18:02:40.276Z,100196.69
2019-02-27T18:05:11.667Z,100195.20
2019-02-27T18:07:43.492Z,100181.67
2019-02-27T18:10:15.371Z,100184.94
2019-02-27T18:12:46.731Z,100182.70
2019-02-27T18:15:20.324Z,100189.40
2019-02-27T18:17:51.064Z,100185.29
2019-02-27T18:20:25.519Z,100182.68
2019-02-27T18:22:55.772Z,100175.33
2019-02-27T18:25:28.451Z,100174.62
2019-02-27T18:27:59.964Z,100180.13
2019-02-27T18:30:31.255Z,100173.41
2019-02-27T18:33:02.570Z,100168.78
2019-02-27T18:35:33.910Z,100160.09
2019-02-27T18:38:05.330Z,100158.34
2019-02-27T18:40:36.680Z,100158.79
2019-02-27T18:43:10.343Z,100144.00
2019-02-27T18:45:41.560Z,100145.86
2019-02-27T18:48:12.820Z,100146.25
2019-02-27T18:50:44.366Z,100146.77
2019-02-27T18:53:15.921Z,100145.23
2019-02-27T18:55:48.641Z,100135.36
2019-02-27T18:58:22.020Z,100141.87
2019-02-27T19:00:54.848Z,100135.52
2019-02-27T19:03:28.580Z,100129.94
2019-02-27T19:06:03.584Z,100133.14
2019-02-27T19:08:36.421Z,100125.72
2019-02-27T19:11:07.781Z,100119.63
2019-02-27T19:13:39.023Z,100126.31
2019-02-27T19:16:10.847Z,100126.42
2019-02-27T19:18:42.121Z,100120.50
2019-02-27T19:21:13.881Z,100120.14
2019-02-27T19:23:45.203Z,100116.39
2019-02-27T19:26:16.720Z,100104.30
2019-02-27T19:28:48.190Z,100107.45
2019-02-27T19:31:19.510Z,100106.66
2019-02-27T19:33:50.771Z,100102.08
2019-02-27T19:36:22.011Z,100093.50
2019-02-27T19:38:53.330Z,100089.31
2019-02-27T19:41:24.551Z,100081.28
2019-02-27T19:43:56.054Z,100080.20
2019-02-27T19:46:27.540Z,100075.43
2019-02-27T19:49:00.860Z,100078.91
2019-02-27T19:51:31.862Z,100073.73
2019-02-27T19:54:03.179Z,100069.42
2019-02-27T19:56:35.497Z,100065.59
2019-02-27T19:59:07.651Z,100061.77
2019-02-27T20:01:46.997Z,100051.45
2019-02-27T20:04:13.682Z,100047.30
2019-02-27T20:06:44.900Z,100047.80
2019-02-27T20:09:18.994Z,100047.55
2019-02-27T20:11:46.649Z,100042.56
2019-02-27T20:14:17.139Z,100042.24
2019-02-27T20:16:47.229Z,100030.16
2019-02-27T20:19:22.379Z,100030.67
2019-02-27T20:21:48.812Z,100033.23
2019-02-27T20:24:19.030Z,100021.55
2019-02-27T20:26:53.838Z,100015.12
2019-02-27T20:29:20.849Z,100008.61
2019-02-27T20:31:51.478Z,100008.65
2019-02-27T20:34:23.499Z,100006.19
2019-02-27T20:36:53.561Z,99998.84
2019-02-27T20:39:24.552Z,99988.55
2019-02-27T20:41:55.599Z,99988.18
2019-02-27T20:44:25.693Z,99987.13
2019-02-27T20:46:55.789Z,99975.02
2019-02-27T20:49:25.752Z,99975.02
2019-02-27T20:51:55.959Z,99969.42
2019-02-27T20:54:25.993Z,99961.36
2019-02-27T20:56:56.769Z,99956.73
2019-02-27T20:59:27.370Z,99955.62
2019-02-27T21:01:57.421Z,99947.52
2019-02-27T21:04:28.114Z,99945.42
2019-02-27T21:06:58.199Z,99941.59
2019-02-27T21:09:28.279Z,99939.89
2019-02-27T21:11:58.289Z,99932.13
2019-02-27T21:14:28.203Z,99922.33
2019-02-27T21:16:58.234Z,99918.39
2019-02-27T21:19:28.589Z,99918.75
2019-02-27T21:21:58.848Z,99917.34
2019-02-27T21:24:28.829Z,99918.10
2019-02-27T21:26:58.869Z,99920.74
2019-02-27T21:29:29.000Z,99917.37
2019-02-27T21:32:01.504Z,99906.25
2019-02-27T21:34:32.349Z,99909.76
2019-02-27T21:37:02.269Z,99901.45
2019-02-27T21:39:32.541Z,99894.55
2019-02-27T21:42:02.748Z,99897.58
2019-02-27T21:44:32.799Z,99892.92
2019-02-27T21:47:02.799Z,99899.09
2019-02-27T21:49:33.309Z,99889.20
2019-02-27T21:52:03.579Z,99882.38
2019-02-27T21:54:38.287Z,99886.74
2019-02-27T21:57:05.209Z,99879.41
2019-02-27T21:59:36.383Z,99877.23
2019-02-27T22:02:06.979Z,99865.03
2019-02-27T22:04:37.089Z,99863.26
2019-02-27T22:07:07.059Z,99864.92
2019-02-27T22:09:37.269Z,99852.34
2019-02-27T22:12:07.319Z,99857.88
2019-02-27T22:14:37.480Z,99857.41
2019-02-27T22:17:07.520Z,99851.33
2019-02-27T22:19:37.523Z,99847.98
2019-02-27T22:22:08.125Z,99841.19
2019-02-27T22:24:38.809Z,99837.33
2019-02-27T22:27:09.180Z,99828.63
2019-02-27T22:29:40.498Z,99826.77
2019-02-27T22:32:12.098Z,99827.64
2019-02-27T22:34:42.159Z,99818.22
2019-02-27T22:37:12.330Z,99820.92
2019-02-27T22:39:42.229Z,99808.83
2019-02-27T22:42:14.758Z,99813.20
2019-02-27T22:44:43.928Z,99803.55
2019-02-27T22:47:13.888Z,99796.97
2019-02-27T22:49:43.878Z,99787.83
2019-02-27T22:52:14.010Z,99790.00
2019-02-27T22:54:45.279Z,99780.02
2019-02-27T22:57:15.291Z,99784.83
2019-02-27T22:59:45.148Z,99777.50
2019-02-27T23:02:15.542Z,99778.05
2019-02-27T23:04:45.729Z,99768.05
2019-02-27T23:07:20.578Z,99766.20
2019-02-27T23:09:47.840Z,99760.95
2019-02-27T23:12:19.459Z,99754.92
2019-02-27T23:14:50.219Z,99760.99
2019-02-27T23:17:21.581Z,99760.13
2019-02-27T23:19:51.641Z,99755.80
2019-02-27T23:22:21.781Z,99757.87
2019-02-27T23:24:51.910Z,99755.63
2019-02-27T23:28:02.065Z,99750.31
2019-02-27T23:31:23.378Z,99752.09
2019-02-27T23:33:54.951Z,99749.48
2019-02-27T23:36:25.128Z,99752.36
2019-02-27T23:38:55.380Z,99748.34
2019-02-27T23:41:25.623Z,99742.55
2019-02-27T23:43:55.991Z,99736.44
2019-02-27T23:46:26.031Z,99731.19
2019-02-27T23:48:56.410Z,99728.55
2019-02-27T23:51:26.590Z,99717.35
2019-02-27T23:53:58.601Z,99708.41
2019-02-27T23:56:28.630Z,99703.80
2019-02-27T23:59:02.312Z,99707.39
